메인 페이지
METAR-TAF:

METAR-TAF

공항 :

프레즈노, 캘리포니아, 미국

위도: 36-46-48N, 경도: 119-43-10W, 고도: 101m

현재 날씨관측

예보는 1 시간 24분 전, 13:53시(UTC)에 발표되었습니다.
북서5kt
온도 14°C
습도 72%
기압 1015 hPa
시정: 16.1km
고도 20000ft 상공 구름 조금

METAR: KFAT 241353Z 31005KT 10SM FEW200 14/09 A2998 RMK AO2 SLP151 T01390094

시각: 08:17 (15:17 UTC)

예보

예보는 3 시간 57분 전, 11:20시(UTC)에 발표되었습니다.
예보 대상 시간: 24일 12시부터 25일 12시까지 (UTC)
북서10kt
시정: 10km
고도 20000ft 상공 구름 보통
24일 2300시부터 (UTC)
북서12kt, 순간 최대 풍속 18kt
시정: 10km
고도 20000ft 상공 구름 보통
25일 1100시부터 (UTC)
북북서11kt
시정: 10km
고도 5000ft 상공 흐림
확률 30%
25일 11시부터 25일 12시까지 (UTC)
시정: 10km
고도 5000ft 상공 흐림
약한소나기

TAF: KFAT 241120Z 2412/2512 31010KT P6SM SCT200 FM242300 32012G18KT P6SM SCT200 FM251100 33011KT P6SM OVC050 PROB30 2511/2512 P6SM -SHRA OVC050

4,000개 이상의 공항 관측 자료 및 예보 (METAR 및 TAF 보고).

지도상에서 검색 가능한 기상관측소가 노란 점과 빨간 점으로 표시되어 있습니다.

기상관측소 명을 보려면 표시 위로 마우스를 이동하세요.

날씨 관측과 예보를 보려면 클릭하세요.

지도 변경 : 확대하려면 엑스 표시가 있는 녹색 버튼, 축소하려면 빼기 표시가 있는 녹색 버튼, 다음 페이지의 지도를 보려면 녹색 화살표를 클릭하세요.


METAR-TAF: